^^
Datos históricos de la estación: Murcia-Puente Tocinos
Diario Informe para Septiembre 4, 2019 Unidades:  Ingés    Métrico   Ambas
Diario Semanal Mensual Anual
  Máxima: Mínima: Promedio:
Temperatura: 86.7 °F 63.9 °F 74.5 °F
Punto de rocio: 59.4 °F 46.9 °F 51.4 °F
Humedad: 69% 26% 47%
Velocidad viento: 10mph 0mph 3.8mph
Racha viento: 17.5mph - -
Viento- - Sur
Presión: 30 in 29.9 in -
Precipitación: 0 in    
 
 
Tabla de datos para Septiembre 4, 2019
Hora Temperatura Punto de rocio Presión Viento Velocidad viento Racha viento Humedad Intensidad lluvia(por hora) Nubes
00:04 71.1 °F 59 °F 30 in Oeste 2.4 mph 5 mph 65.8% 0 in
00:09 70.9 °F 59 °F 30 in Oeste 2.3 mph 4.6 mph 66% 0 in
00:14 70.5 °F 59.2 °F 30 in NO 1.8 mph 5 mph 67.4% 0 in
00:19 70.3 °F 59.4 °F 30 in NO 1.8 mph 4 mph 68.3% 0 in
00:24 70.2 °F 59.4 °F 30 in NO 1.8 mph 3 mph 69% 0 in
00:29 69.8 °F 58.8 °F 30 in SO 1.8 mph 5.8 mph 68.3% 0 in
00:34 69.4 °F 58.1 °F 30 in SE 1.8 mph 6 mph 67.5% 0 in
00:39 69.3 °F 57.6 °F 30 in SSE 1.9 mph 5.9 mph 66.5% 0 in
00:44 69.4 °F 56.7 °F 30 in Sur 3.1 mph 7.4 mph 64.1% 0 in
00:49 69.8 °F 56.3 °F 30 in SSO 3.4 mph 8.1 mph 62.2% 0 in
00:54 70 °F 55.9 °F 30 in SO 5.2 mph 9.7 mph 61.1% 0 in
00:59 70.2 °F 56.1 °F 30 in SO 5.3 mph 10 mph 61% 0 in
01:04 70.2 °F 55.6 °F 30 in SO 5.9 mph 9 mph 60% 0 in
01:09 70.2 °F 55.6 °F 30 in SO 5.7 mph 9 mph 60% 0 in
01:14 70.2 °F 55.4 °F 30 in SSO 4.7 mph 7 mph 59.6% 0 in
01:19 70.2 °F 55.2 °F 30 in SSO 4.6 mph 6.2 mph 59% 0 in
01:24 70.2 °F 55.2 °F 30 in Sur 4 mph 6 mph 59% 0 in
01:29 70 °F 55.8 °F 30 in SE 3.9 mph 6 mph 60.8% 0 in
01:34 69.3 °F 55.9 °F 30 in SSE 2.9 mph 6 mph 62.4% 0 in
01:39 68.7 °F 55.6 °F 30 in Sur 3 mph 5.8 mph 63% 0 in
01:44 68.5 °F 55.4 °F 30 in SSO 3.6 mph 6 mph 63% 0 in
01:49 68.7 °F 55.6 °F 30 in SSO 3.6 mph 6 mph 63% 0 in
01:54 68.7 °F 55.6 °F 30 in SSE 3.6 mph 5.2 mph 63% 0 in
01:59 68.5 °F 55.6 °F 30 in SE 3.5 mph 5.8 mph 63.3% 0 in
02:04 68.2 °F 55.4 °F 30 in SSE 3.1 mph 6.2 mph 64% 0 in
02:09 67.6 °F 55.4 °F 30 in SSE 3.3 mph 8.5 mph 65% 0 in
02:14 67.5 °F 55.2 °F 30 in Sur 4.7 mph 10.7 mph 65% 0 in
02:19 67.5 °F 55.4 °F 30 in SSO 4.9 mph 11 mph 65% 0 in
02:24 67.6 °F 55.4 °F 30 in SSO 6.4 mph 9 mph 64.8% 0 in
02:29 67.8 °F 55.2 °F 30 in Sur 6.2 mph 8 mph 64% 0 in
02:34 67.8 °F 55.2 °F 30 in Sur 4 mph 6 mph 64% 0 in
02:39 68 °F 55.4 °F 30 in Sur 3.9 mph 5 mph 64% 0 in
02:44 67.8 °F 55.2 °F 30 in SO 2.4 mph 6.9 mph 64% 0 in
02:49 67.8 °F 55.2 °F 30 in SO 2.7 mph 9.2 mph 64% 0 in
02:54 67.8 °F 55.2 °F 30 in SO 4.7 mph 9 mph 64% 0 in
02:59 67.8 °F 55 °F 30 in SSO 4.8 mph 9.2 mph 63.6% 0 in
03:04 67.6 °F 54.7 °F 30 in SO 5.2 mph 9 mph 63% 0 in
03:09 67.6 °F 54.7 °F 30 in OSO 5 mph 6.2 mph 63% 0 in
03:14 67.5 °F 54.5 °F 30 in SO 3.6 mph 6 mph 63% 0 in
03:19 67.5 °F 54.3 °F 30 in SO 3.5 mph 6 mph 63% 0 in
03:24 67.5 °F 54.3 °F 30 in Sur 3.1 mph 5 mph 63% 0 in
03:29 67.3 °F 54.3 °F 30 in Sur 3 mph 5.8 mph 63% 0 in
03:34 67.3 °F 54.3 °F 30 in SSO 2.4 mph 8.5 mph 63% 0 in
03:39 67.5 °F 54.3 °F 30 in SO 2.7 mph 9.2 mph 62.7% 0 in
03:44 67.5 °F 54.1 °F 30 in SO 5.4 mph 9 mph 62.3% 0 in
03:49 67.5 °F 54.3 °F 30 in SO 5.4 mph 8.5 mph 63% 0 in
03:54 67.3 °F 54.3 °F 30 in SO 5.2 mph 9 mph 63% 0 in
03:59 66.9 °F 54.1 °F 30 in SO 5.1 mph 9 mph 63.4% 0 in
04:04 66.9 °F 54.3 °F 30 in SO 4.7 mph 7 mph 64% 0 in
04:09 66.7 °F 54.3 °F 30 in SO 4.6 mph 6 mph 64% 0 in
04:14 66.7 °F 54.1 °F 30 in SSO 3.6 mph 7.4 mph 64% 0 in
04:19 66.6 °F 54.1 °F 30 in SSO 3.7 mph 8.1 mph 64% 0 in
04:24 66.6 °F 54 °F 30 in SSO 5.2 mph 8.5 mph 64% 0 in
04:29 66.6 °F 53.8 °F 30 in SSO 5.3 mph 9.2 mph 63.3% 0 in
04:34 66.6 °F 54 °F 30 in SSO 5.9 mph 9 mph 63.9% 0 in
04:39 66.4 °F 53.8 °F 30 in SSO 5.8 mph 9 mph 63.9% 0 in
04:44 66.2 °F 53.4 °F 30 in SSO 5.4 mph 7 mph 63.6% 0 in
04:49 66.2 °F 53.2 °F 30 in SSO 5.2 mph 7 mph 63% 0 in
04:54 66 °F 52.9 °F 30 in SSO 3.6 mph 7.4 mph 62.6% 0 in
04:59 66 °F 52.7 °F 30 in SSO 3.8 mph 7 mph 62.2% 0 in
05:04 66 °F 52.7 °F 30 in SSO 4.7 mph 6.9 mph 62.1% 0 in
05:09 65.8 °F 52.5 °F 30 in SSO 4.6 mph 7 mph 62.2% 0 in
05:14 65.8 °F 52.5 °F 30 in SO 4 mph 6.9 mph 62% 0 in
05:19 65.8 °F 52.5 °F 30 in OSO 4 mph 7 mph 61.8% 0 in
05:24 65.8 °F 52.5 °F 30 in OSO 4 mph 5.8 mph 62% 0 in
05:29 65.7 °F 52.3 °F 30 in OSO 3.9 mph 6 mph 62% 0 in
05:34 65.7 °F 52 °F 30 in SO 3.1 mph 6.2 mph 61.7% 0 in
05:39 65.7 °F 51.8 °F 30 in OSO 3.2 mph 6 mph 61% 0 in
05:44 65.7 °F 51.6 °F 30 in SSO 4 mph 6.4 mph 60.7% 0 in
05:49 65.8 °F 51.4 °F 30 in SSO 4 mph 9.2 mph 59.8% 0 in
05:54 66 °F 51.4 °F 30 in SSO 4.3 mph 9 mph 59.4% 0 in
05:59 66 °F 51.4 °F 30 in SSO 4.3 mph 7 mph 59.3% 0 in
06:04 65.8 °F 51.6 °F 30 in SSO 4 mph 7 mph 60% 0 in
06:09 65.7 °F 51.4 °F 30 in SO 4 mph 7 mph 60% 0 in
06:14 65.7 °F 51.4 °F 30 in SO 4 mph 7 mph 60% 0 in
06:19 65.7 °F 51.1 °F 30 in OSO 4 mph 6 mph 59.5% 0 in
06:24 65.5 °F 50.7 °F 30 in SO 4 mph 6.4 mph 58.7% 0 in
06:29 65.5 °F 50.4 °F 30 in SO 4 mph 7 mph 58% 0 in
06:34 65.5 °F 50.4 °F 30 in SSO 4 mph 6 mph 58% 0 in
06:39 65.7 °F 50.7 °F 30 in SSE 3.7 mph 3.5 mph 58.4% 0 in
06:44 65.7 °F 50.9 °F 30 in SSE 1.8 mph 3 mph 59.3% 0 in
06:49 65.5 °F 51.3 °F 30 in SSE 1.6 mph 2.3 mph 60.1% 0 in
06:54 65.1 °F 51.1 °F 30 in Calm   3.6 mph 60.3% 0 in
06:59 64.9 °F 51.1 °F 30 in NNO 0.3 mph 4 mph 61% 0 in
07:04 64.6 °F 50.7 °F 30 in NNO 1.8 mph 4 mph 60.8% 0 in
07:09 64.2 °F 50.5 °F 30 in NNO 1.8 mph 3.5 mph 61% 0 in
07:14 64.2 °F 50.4 °F 30 in NNO 1.8 mph 3.5 mph 60.9% 0 in
07:19 64.2 °F 50.5 °F 30 in NNO 1.6 mph 2.4 mph 61% 0 in
07:24 64.2 °F 50.5 °F 30 in Calm   3.6 mph 61% 0 in
07:29 64.2 °F 50.2 °F 30 in Sur 0.2 mph 4.6 mph 60.4% 0 in
07:34 64.4 °F 50.2 °F 30 in SSO 2 mph 5.2 mph 60% 0 in
07:39 64.6 °F 50.4 °F 30 in SO 2.1 mph 5 mph 60% 0 in
07:44 64.6 °F 50.7 °F 30 in ONO 2.9 mph 5 mph 60.6% 0 in
07:49 64.6 °F 50.5 °F 30 in NO 2.8 mph 5 mph 60.5% 0 in
07:54 64.4 °F 50.7 °F 30 in NO 1.8 mph 3 mph 61% 0 in
07:59 64.2 °F 50.7 °F 30 in NO 1.8 mph 2.9 mph 61.6% 0 in
08:04 64.2 °F 51.3 °F 30 in NO 1.8 mph 3 mph 62.8% 0 in
08:09 64 °F 51.3 °F 30 in Oeste 1.8 mph 4.3 mph 63% 0 in
08:14 63.9 °F 50.4 °F 30 in OSO 1.8 mph 5.2 mph 61.6% 0 in
08:19 64 °F 50.2 °F 30 in SO 2 mph 5.9 mph 60.8% 0 in
08:24 64.2 °F 50 °F 30 in SO 3.1 mph 6.2 mph 60.1% 0 in
08:29 64.6 °F 50 °F 30 in SO 3.2 mph 6.2 mph 59% 0 in
08:34 64.9 °F 49.5 °F 30 in SO 4 mph 6.2 mph 57.6% 0 in
08:39 65.3 °F 49.3 °F 30 in SO 4 mph 6.9 mph 56.3% 0 in
08:44 65.7 °F 49.1 °F 30 in SO 4.3 mph 7 mph 55.2% 0 in
08:49 66.2 °F 49.1 °F 30 in OSO 4.3 mph 6 mph 54.2% 0 in
08:54 66.6 °F 49.3 °F 30 in SO 4.3 mph 6 mph 54% 0 in
08:59 66.7 °F 49.5 °F 30 in SSO 4.2 mph 5.9 mph 54% 0 in
09:04 66.9 °F 49.5 °F 30 in SSO 3.6 mph 6 mph 53.7% 0 in
09:09 67.1 °F 49.6 °F 30 in SSE 3.5 mph 5 mph 53.3% 0 in
09:14 67.5 °F 50.2 °F 30 in Sur 3.1 mph 5.2 mph 53.9% 0 in
09:19 67.6 °F 50.4 °F 30 in SO 3 mph 5 mph 53.9% 0 in
09:24 67.8 °F 50.4 °F 30 in SO 2.9 mph 5.9 mph 53.3% 0 in
09:29 68.2 °F 50.4 °F 30 in SO 2.9 mph 6.2 mph 53% 0 in
09:34 68.4 °F 49.8 °F 30 in OSO 2.9 mph 6.9 mph 51.4% 0 in
09:39 68.5 °F 49.3 °F 30 in OSO 3 mph 7.4 mph 50.1% 0 in
09:44 68.7 °F 48.7 °F 30 in OSO 4.3 mph 7 mph 49.1% 0 in
09:49 68.9 °F 48.7 °F 30 in OSO 4.2 mph 7 mph 48.7% 0 in
09:54 69.1 °F 48.6 °F 30 in OSO 3.6 mph 6 mph 48% 0 in
09:59 69.3 °F 48.9 °F 30 in SO 3.4 mph 5 mph 48.3% 0 in
10:04 69.6 °F 49.1 °F 30 in OSO 2.4 mph 5.8 mph 47.9% 0 in
10:09 70 °F 48.7 °F 30 in OSO 2.4 mph 6 mph 47% 0 in
10:14 70.2 °F 48.9 °F 30 in OSO 2.9 mph 5 mph 47% 0 in
10:19 70.3 °F 49.1 °F 30 in SO 2.9 mph 5 mph 46.9% 0 in
10:24 70.7 °F 49.1 °F 30 in SO 2.9 mph 5.9 mph 46.4% 0 in
10:29 71.1 °F 49.1 °F 30 in OSO 3 mph 6.2 mph 45.9% 0 in
10:34 71.2 °F 48.9 °F 30 in OSO 3.6 mph 6 mph 45.3% 0 in
10:39 71.4 °F 49.6 °F 30 in SO 3.6 mph 6.2 mph 46% 0 in
10:44 72 °F 49.5 °F 30 in SO 3.6 mph 6.9 mph 45.1% 0 in
10:49 72.3 °F 49.6 °F 30 in Sur 3.7 mph 7 mph 44.7% 0 in
10:54 72.7 °F 49.5 °F 30 in SSO 4 mph 7 mph 44.1% 0 in
10:59 72.9 °F 49.6 °F 30 in OSO 3.9 mph 5 mph 43.8% 0 in
11:04 73.4 °F 49.8 °F 30 in Sur 3.1 mph 5.9 mph 43.7% 0 in
11:09 73.8 °F 49.8 °F 30 in SSE 3.2 mph 7.4 mph 43% 0 in
11:14 73.9 °F 49.8 °F 30 in Sur 4.3 mph 7.4 mph 42.4% 0 in
11:19 74.1 °F 49.5 °F 30 in SSO 4.3 mph 7 mph 41.8% 0 in
11:24 74.5 °F 49.8 °F 30 in Sur 4 mph 6.2 mph 41.8% 0 in
11:29 75 °F 50 °F 30 in SSO 4 mph 6 mph 41.4% 0 in
11:34 75.4 °F 49.8 °F 30 in Sur 3.6 mph 6 mph 40.7% 0 in
11:39 75.7 °F 50 °F 30 in SSO 3.5 mph 6 mph 40.4% 0 in
11:44 76.3 °F 50.2 °F 30 in SO 2.4 mph 5 mph 40% 0 in
11:49 77 °F 50.5 °F 30 in Sur 2.4 mph 5 mph 39.7% 0 in
11:54 77.4 °F 50.2 °F 30 in SSO 2 mph 6.9 mph 38.5% 0 in
11:59 77.4 °F 49.8 °F 30 in SO 2.2 mph 7 mph 38% 0 in
12:04 77.4 °F 50.4 °F 30 in SO 3.1 mph 6 mph 38.9% 0 in
12:09 77.5 °F 50 °F 30 in SSE 3 mph 5 mph 38.2% 0 in
12:14 78.1 °F 50.4 °F 30 in ENE 2.9 mph 5 mph 38% 0 in
12:19 78.4 °F 50.4 °F 30 in Este 2.9 mph 5 mph 37.5% 0 in
12:24 79.2 °F 50.5 °F 30 in Sur 2.4 mph 5 mph 37% 0 in
12:29 79.3 °F 50.2 °F 30 in SO 2.4 mph 4.6 mph 36.1% 0 in
12:34 79.7 °F 50.9 °F 30 in NNO 2 mph 5 mph 36.7% 0 in
12:39 80.1 °F 50.7 °F 30 in NNE 2.1 mph 5.8 mph 36% 0 in
12:44 80.2 °F 50.9 °F 30 in NE 2.4 mph 6 mph 36% 0 in
12:49 80.4 °F 50.9 °F 30 in NNO 2.4 mph 5 mph 35.9% 0 in
12:54 80.8 °F 51.3 °F 30 in NNE 2 mph 5.8 mph 36% 0 in
12:59 81 °F 51.3 °F 30 in NNO 2.1 mph 6 mph 35.6% 0 in
13:04 81.1 °F 51.1 °F 30 in NNE 2.4 mph 5.9 mph 35.3% 0 in
13:09 81.1 °F 51.1 °F 30 in NO 2.5 mph 6 mph 35.2% 0 in
13:14 81.1 °F 51.3 °F 30 in NE 3.1 mph 6.9 mph 35.7% 0 in
13:19 81 °F 51.3 °F 30 in NNE 3.2 mph 7 mph 35.8% 0 in
13:24 81 °F 51.1 °F 30 in NNO 4 mph 6 mph 35.4% 0 in
13:29 81.3 °F 51.1 °F 30 in NE 3.8 mph 5.8 mph 35% 0 in
13:34 81.7 °F 50.9 °F 30 in NE 2.4 mph 8.1 mph 34.3% 0 in
13:39 81.7 °F 50.5 °F 30 in NE 2.4 mph 8 mph 34% 0 in
13:44 82 °F 50.5 °F 30 in NNO 2.9 mph 5 mph 33.5% 0 in
13:49 82.4 °F 50.7 °F 30 in NNE 2.9 mph 5.4 mph 33.3% 0 in
13:54 82.8 °F 50.5 °F 30 in NE 2.4 mph 6.2 mph 32.8% 0 in
13:59 82.6 °F 50.4 °F 30 in ENE 2.6 mph 6.9 mph 32.7% 0 in
14:04 82.6 °F 49.8 °F 30 in ENE 3.6 mph 7 mph 32% 0 in
14:09 82.9 °F 50 °F 30 in ENE 3.4 mph 5.2 mph 32% 0 in
14:14 83.3 °F 49.8 °F 30 in Este 1.8 mph 6.9 mph 31.4% 0 in
14:19 83.3 °F 49.6 °F 30 in SE 2.1 mph 9.2 mph 31.2% 0 in
14:24 83.1 °F 50 °F 30 in ESE 4 mph 9 mph 31.7% 0 in
14:29 83.7 °F 50.4 °F 30 in ENE 3.9 mph 5.9 mph 31.8% 0 in
14:34 83.7 °F 49.6 °F 30 in NE 2.9 mph 8.5 mph 30.8% 0 in
14:39 83.7 °F 48.9 °F 30 in NNE 3.1 mph 9 mph 30% 0 in
14:44 83.7 °F 48.7 °F 30 in NNE 4.7 mph 8 mph 29.7% 0 in
14:49 84.2 °F 48.4 °F 30 in NE 4.5 mph 6.2 mph 28.9% 0 in
14:54 84.6 °F 47.5 °F 30 in NNE 3.6 mph 6.4 mph 27.7% 0 in
14:59 84.7 °F 47.7 °F 30 in North 3.6 mph 7 mph 27.5% 0 in
15:04 85.1 °F 47.3 °F 30 in NE 3.6 mph 8.1 mph 27% 0 in
15:09 85.3 °F 47.5 °F 29.9 in NNE 3.7 mph 8 mph 27% 0 in
15:14 85.5 °F 47.7 °F 29.9 in North 4 mph 7 mph 27% 0 in
15:19 85.6 °F 47.5 °F 29.9 in ENE 4 mph 7 mph 26.8% 0 in
15:24 85.6 °F 46.9 °F 29.9 in North 3.6 mph 7 mph 26.1% 0 in
15:29 86 °F 47.7 °F 29.9 in NNE 3.5 mph 6.9 mph 26.6% 0 in
15:34 86.2 °F 47.3 °F 29.9 in SSE 2.4 mph 7 mph 26.1% 0 in
15:39 86.2 °F 47.7 °F 29.9 in OSO 2.5 mph 6 mph 26.5% 0 in
15:44 86.5 °F 48 °F 29.9 in NE 3.1 mph 4.7 mph 26.5% 0 in
15:49 86.7 °F 47.7 °F 29.9 in NE 3 mph 5 mph 26% 0 in
15:54 86.7 °F 48.4 °F 29.9 in Este 2.9 mph 11.5 mph 26.7% 0 in
15:59 86.5 °F 48.7 °F 29.9 in SE 3.2 mph 12 mph 27% 0 in
16:04 86.5 °F 50.2 °F 29.9 in ESE 4.7 mph 9.2 mph 28.6% 0 in
16:09 86.5 °F 50.5 °F 29.9 in SE 4.9 mph 11.8 mph 29% 0 in
16:14 86.4 °F 51.1 °F 29.9 in SE 6.2 mph 15 mph 29.8% 0 in
16:19 86.2 °F 52 °F 29.9 in SE 6.6 mph 17.3 mph 31% 0 in
16:24 85.6 °F 51.6 °F 29.9 in ESE 9.2 mph 17 mph 31% 0 in
16:29 85.6 °F 52 °F 29.9 in SE 9.3 mph 16 mph 31.6% 0 in
16:34 85.5 °F 52.2 °F 29.9 in SE 9.7 mph 15 mph 32% 0 in
16:39 85.5 °F 52.3 °F 29.9 in SE 9.7 mph 16.1 mph 32.1% 0 in
16:44 85.5 °F 52.9 °F 29.9 in ESE 9.7 mph 17.3 mph 32.9% 0 in
16:49 85.1 °F 52.9 °F 29.9 in ESE 9.8 mph 17 mph 33.1% 0 in
16:54 85.1 °F 53.6 °F 29.9 in ESE 10 mph 15 mph 33.9% 0 in
16:59 85.3 °F 54.5 °F 29.9 in ESE 9.8 mph 14 mph 34.9% 0 in
17:04 85.5 °F 54.9 °F 29.9 in SE 8.7 mph 15.2 mph 35.3% 0 in
17:09 85.3 °F 56.1 °F 29.9 in ESE 8.8 mph 15 mph 37% 0 in
17:14 84.9 °F 55.6 °F 29.9 in ESE 9.7 mph 15.2 mph 36.7% 0 in
17:19 84.9 °F 54.9 °F 29.9 in SE 9.6 mph 15 mph 35.8% 0 in
17:24 85.1 °F 54.1 °F 29.9 in ESE 8.7 mph 17.5 mph 34.8% 0 in
17:29 84.9 °F 53.6 °F 29.9 in ESE 8.6 mph 17.3 mph 34.2% 0 in
17:34 85.1 °F 53.2 °F 29.9 in SE 8.1 mph 15 mph 33.7% 0 in
17:39 85.1 °F 52.3 °F 29.9 in SE 8.1 mph 15 mph 32.6% 0 in
17:44 84.9 °F 52.3 °F 29.9 in SE 8.1 mph 15 mph 32.6% 0 in
17:49 84.9 °F 52.5 °F 29.9 in ESE 8 mph 15 mph 32.9% 0 in
17:54 84.9 °F 52.3 °F 29.9 in ESE 6.9 mph 13.8 mph 32.7% 0 in
17:59 84.9 °F 51.8 °F 29.9 in SE 6.9 mph 14 mph 32% 0 in
18:04 84.7 °F 51.6 °F 29.9 in SE 6.9 mph 13.8 mph 32% 0 in
18:09 84.7 °F 51.6 °F 29.9 in SE 7 mph 14 mph 32% 0 in
18:14 84.7 °F 51.6 °F 29.9 in ESE 7.4 mph 12 mph 32% 0 in
18:19 84.6 °F 50.5 °F 29.9 in SE 7.3 mph 13.8 mph 30.9% 0 in
18:24 84.6 °F 50 °F 29.9 in SE 6.4 mph 14 mph 30.3% 0 in
18:29 84.6 °F 50.5 °F 29.9 in SE 6.5 mph 13 mph 31% 0 in
18:34 84.4 °F 50.4 °F 29.9 in SSE 7.6 mph 13 mph 31% 0 in
18:39 84.4 °F 50.4 °F 29.9 in SSE 7.4 mph 10.7 mph 31% 0 in
18:44 84.4 °F 50.2 °F 29.9 in SSE 5.9 mph 12.7 mph 30.8% 0 in
18:49 84 °F 50.2 °F 29.9 in SE 6 mph 13 mph 31% 0 in
18:54 83.8 °F 50.4 °F 29.9 in SE 6.4 mph 13 mph 31.5% 0 in
18:59 83.7 °F 50.7 °F 29.9 in ESE 6 mph 10 mph 32% 0 in
19:04 83.7 °F 50.5 °F 29.9 in SSE 4.3 mph 9 mph 31.8% 0 in
19:09 83.5 °F 50.5 °F 29.9 in SE 4.2 mph 8 mph 32% 0 in
19:14 83.5 °F 50.5 °F 29.9 in SSE 3.6 mph 6.4 mph 32% 0 in
19:19 83.1 °F 50.2 °F 29.9 in SSE 3.7 mph 7.4 mph 32% 0 in
19:24 82.9 °F 50 °F 29.9 in SSE 4.3 mph 7 mph 32% 0 in
19:29 82.8 °F 49.6 °F 29.9 in SSE 4.3 mph 9.7 mph 31.8% 0 in
19:34 82.2 °F 49.5 °F 29.9 in SSE 4.7 mph 10.2 mph 32% 0 in
19:39 81.9 °F 48.9 °F 29.9 in SSE 4.8 mph 10.7 mph 31.8% 0 in
19:44 81.5 °F 48 °F 29.9 in Sur 5.9 mph 11 mph 31% 0 in
19:49 81.3 °F 47.8 °F 29.9 in SSE 6 mph 10 mph 31% 0 in
19:54 81.1 °F 47.7 °F 29.9 in SSE 6.2 mph 9 mph 31% 0 in
19:59 81.1 °F 47.5 °F 29.9 in SSE 5.9 mph 8 mph 31% 0 in
20:04 81 °F 47.5 °F 29.9 in SE 4.3 mph 7.6 mph 31% 0 in
20:09 80.8 °F 47.3 °F 29.9 in SE 4.3 mph 8.1 mph 31% 0 in
20:14 80.6 °F 47.5 °F 29.9 in ESE 4.3 mph 8 mph 31.4% 0 in
20:19 80.2 °F 48.7 °F 29.9 in Este 4.1 mph 5.8 mph 33.2% 0 in
20:24 79.9 °F 48.9 °F 29.9 in Este 2.9 mph 6 mph 33.9% 0 in
20:29 79.5 °F 49.3 °F 29.9 in ENE 2.9 mph 6 mph 34.7% 0 in
20:34 79.3 °F 49.6 °F 29.9 in Este 2.9 mph 4 mph 35.5% 0 in
20:39 79.2 °F 50.2 °F 29.9 in ENE 2.7 mph 3.6 mph 36.5% 0 in
20:44 78.8 °F 50.4 °F 29.9 in NE 1.8 mph 4 mph 37% 0 in
20:49 78.4 °F 50.4 °F 29.9 in NE 1.7 mph 2.3 mph 37.5% 0 in
20:54 78.3 °F 49.8 °F 29.9 in Este 1.4 mph 3.6 mph 37.1% 0 in
20:59 78.1 °F 49.6 °F 29.9 in Este 1.6 mph 4 mph 37% 0 in
21:04 78.1 °F 49.6 °F 29.9 in Este 2.4 mph 5 mph 37% 0 in
21:09 77.9 °F 49.5 °F 29.9 in ENE 2.4 mph 5 mph 37% 0 in
21:14 77.5 °F 49.3 °F 29.9 in ESE 2.4 mph 4 mph 37% 0 in
21:19 77.5 °F 49.3 °F 29.9 in ESE 2.4 mph 4 mph 37% 0 in
21:24 77.4 °F 49.1 °F 29.9 in ESE 2 mph 3.6 mph 37.2% 0 in
21:29 77.4 °F 49.5 °F 29.9 in ESE 2 mph 4 mph 37.6% 0 in
21:34 77.4 °F 49.6 °F 29.9 in ESE 1.8 mph 4 mph 38% 0 in
21:39 77.2 °F 50.2 °F 29.9 in ESE 1.6 mph 3 mph 38.8% 0 in
21:44 77 °F 49.8 °F 29.9 in Calm   2.4 mph 38.6% 0 in
21:49 76.6 °F 50.2 °F 29.9 in Calm   3.5 mph 39.5% 0 in
21:54 76.5 °F 51.3 °F 29.9 in Calm   5.9 mph 41.4% 0 in
21:59 75.7 °F 51.4 °F 29.9 in NNO 0.5 mph 6 mph 42.7% 0 in
22:04 75 °F 51.6 °F 29.9 in NNO 3.1 mph 6 mph 44% 0 in
22:09 74.7 °F 51.3 °F 29.9 in NNO 2.9 mph 5 mph 44.1% 0 in
22:14 74.3 °F 51.1 °F 29.9 in North 1.8 mph 4 mph 44% 0 in
22:19 74.5 °F 51.1 °F 29.9 in North 1.8 mph 3 mph 44% 0 in
22:24 74.5 °F 51.1 °F 29.9 in NNO 1.8 mph 3.6 mph 44% 0 in
22:29 74.5 °F 51.3 °F 29.9 in NO 1.8 mph 4 mph 44.1% 0 in
22:34 74.5 °F 51.4 °F 29.9 in NO 1.8 mph 2.4 mph 44.5% 0 in
22:39 74.3 °F 51.6 °F 29.9 in NO 1.6 mph 2.3 mph 45% 0 in
22:44 74.3 °F 50.9 °F 29.9 in Calm   4.6 mph 44.1% 0 in
22:49 74.1 °F 50.2 °F 29.9 in ENE 0.2 mph 5 mph 43% 0 in
22:54 73.9 °F 50.2 °F 29.9 in Este 2 mph 5.2 mph 43% 0 in
22:59 73.9 °F 50 °F 29.9 in SE 2.2 mph 5 mph 43% 0 in
23:04 73.9 °F 50.2 °F 29.9 in SE 3.1 mph 5.8 mph 43.4% 0 in
23:09 73.8 °F 50.5 °F 29.9 in SE 3 mph 6 mph 44% 0 in
23:14 73.6 °F 50.4 °F 29.9 in SE 2.4 mph 5 mph 44% 0 in
23:19 73.6 °F 50.7 °F 29.9 in SSE 2.3 mph 4.6 mph 44.8% 0 in
23:24 73.6 °F 50.9 °F 29.9 in SSE 1.8 mph 5 mph 45% 0 in
23:29 73.8 °F 51.4 °F 29.9 in SSE 1.8 mph 5 mph 45.8% 0 in
23:34 73.6 °F 51.8 °F 29.9 in SSE 2 mph 3.5 mph 46.6% 0 in
23:39 73.6 °F 52.2 °F 29.9 in SSE 1.9 mph 3 mph 47.1% 0 in
23:44 73.2 °F 52.3 °F 29.9 in SSE 1.4 mph 4.6 mph 48.2% 0 in
23:49 72.9 °F 52.5 °F 29.9 in SSE 1.6 mph 5.9 mph 49.1% 0 in
23:54 72.5 °F 52.9 °F 29.9 in SSE 2.9 mph 6 mph 50.2% 0 in
23:59 72.1 °F 53.1 °F 29.9 in SSE 3 mph 6.2 mph 51% 0 in
Murcia-Puente Tocinos, España
Compliments of Weather Underground - 2.75 mb

La estación de MeteoMurcia.com, publica sus datos en los siguientes proyectos:

Weather Underground PWS IMURCIAP2 Meteoclimatic www.awekas.at

W3Counter
Web Analytics